FWG117 EDDG-EDXW
Flight info
| Callsign | FWG117 |
|---|---|
| Flight time | N/A |
| Altitude | 31000 |
| Route | OSNAD1E/07 OSNAD M170 BASUM Y850 MUBZI M105 OMWEG/N0467F300 DCT BADOS DCT OLDIP |
| Aircraft | A320/M-SDE3FGHIRWY/LB1 |
Departure
| Time | 2026-04-29 19:11 |
|---|---|
| Airport | Münster Osnabrück Airport (EDDG) |
Arrival
| Time | N/A |
|---|---|
| Airport | Westerland Sylt Airport (EDXW) |
| Time | Latitude | Longitude | Altitude | Speed | Heading |
|---|---|---|---|---|---|
| 2026-04-29 18:52 | 52.13359 | 7.69523 | 168 ft | 0 kts | 341° |
| 2026-04-29 19:07 | 52.13399 | 7.69480 | 168 ft | 10 kts | 306° |
| 2026-04-29 19:07 | 52.13397 | 7.69355 | 168 ft | 13 kts | 254° |
| 2026-04-29 19:08 | 52.13418 | 7.69212 | 168 ft | 15 kts | 299° |
| 2026-04-29 19:08 | 52.13406 | 7.69037 | 168 ft | 18 kts | 251° |
| 2026-04-29 19:08 | 52.13363 | 7.68830 | 168 ft | 21 kts | 251° |
| 2026-04-29 19:08 | 52.13311 | 7.68585 | 168 ft | 24 kts | 250° |
| 2026-04-29 19:09 | 52.13253 | 7.68317 | 168 ft | 27 kts | 251° |
| 2026-04-29 19:09 | 52.13187 | 7.68011 | 168 ft | 30 kts | 251° |
| 2026-04-29 19:09 | 52.13115 | 7.67701 | 168 ft | 24 kts | 238° |
| 2026-04-29 19:09 | 52.13068 | 7.67432 | 168 ft | 27 kts | 255° |
| 2026-04-29 19:10 | 52.13028 | 7.67235 | 168 ft | 17 kts | 262° |
| 2026-04-29 19:10 | 52.13081 | 7.67081 | 167 ft | 18 kts | 334° |
| 2026-04-29 19:10 | 52.13173 | 7.67144 | 166 ft | 17 kts | 60° |
| 2026-04-29 19:10 | 52.13221 | 7.67348 | 165 ft | 27 kts | 71° |
| 2026-04-29 19:11 | 52.13396 | 7.68183 | 168 ft | 126 kts | 71° |
| 2026-04-29 19:11 | 52.13763 | 7.69915 | 314 ft | 188 kts | 70° |
| 2026-04-29 19:11 | 52.14267 | 7.72130 | 941 ft | 224 kts | 71° |
| 2026-04-29 19:11 | 52.14799 | 7.74457 | 2218 ft | 215 kts | 71° |
| 2026-04-29 19:12 | 52.15338 | 7.76713 | 3316 ft | 214 kts | 71° |
| 2026-04-29 19:12 | 52.15837 | 7.79001 | 4285 ft | 216 kts | 79° |
| 2026-04-29 19:12 | 52.16071 | 7.81458 | 4876 ft | 222 kts | 83° |
| 2026-04-29 19:12 | 52.16215 | 7.83113 | 5000 ft | 223 kts | 83° |
| 2026-04-29 19:13 | 52.16506 | 7.86506 | 5507 ft | 234 kts | 83° |
| 2026-04-29 19:13 | 52.16734 | 7.89237 | 6392 ft | 246 kts | 82° |
| 2026-04-29 19:13 | 52.16967 | 7.92022 | 7360 ft | 253 kts | 82° |
| 2026-04-29 19:13 | 52.17209 | 7.94883 | 8351 ft | 258 kts | 81° |
| 2026-04-29 19:14 | 52.17454 | 7.97803 | 9375 ft | 262 kts | 81° |
| 2026-04-29 19:14 | 52.17703 | 8.00760 | 10361 ft | 269 kts | 80° |
| 2026-04-29 19:14 | 52.17973 | 8.03912 | 10771 ft | 293 kts | 80° |
| 2026-04-29 19:14 | 52.18267 | 8.07331 | 11098 ft | 317 kts | 80° |
| 2026-04-29 19:15 | 52.18551 | 8.10724 | 11598 ft | 330 kts | 80° |
| 2026-04-29 19:15 | 52.18853 | 8.14389 | 12006 ft | 316 kts | 80° |
| 2026-04-29 19:15 | 52.19130 | 8.17810 | 12128 ft | 294 kts | 80° |
| 2026-04-29 19:15 | 52.19395 | 8.20995 | 12248 ft | 273 kts | 77° |
| 2026-04-29 19:16 | 52.19865 | 8.23830 | 12371 ft | 252 kts | 67° |
| 2026-04-29 19:16 | 52.20583 | 8.26311 | 12497 ft | 233 kts | 58° |
| 2026-04-29 19:16 | 52.21540 | 8.28288 | 12615 ft | 214 kts | 40° |
| 2026-04-29 19:16 | 52.22743 | 8.29509 | 12736 ft | 194 kts | 31° |
| 2026-04-29 19:17 | 52.23852 | 8.30501 | 12819 ft | 173 kts | 31° |
| 2026-04-29 19:17 | 52.24912 | 8.31453 | 12371 ft | 181 kts | 32° |
| 2026-04-29 19:17 | 52.26138 | 8.32579 | 12237 ft | 217 kts | 32° |
| 2026-04-29 19:17 | 52.27314 | 8.33590 | 14110 ft | 175 kts | 28° |
| 2026-04-29 19:18 | 52.28428 | 8.34401 | 15067 ft | 180 kts | 27° |
| 2026-04-29 19:18 | 52.29213 | 8.34974 | 15531 ft | 186 kts | 27° |
| 2026-04-29 19:18 | 52.30786 | 8.36142 | 16272 ft | 204 kts | 28° |
| 2026-04-29 19:18 | 52.32251 | 8.37274 | 15899 ft | 258 kts | 28° |
| 2026-04-29 19:19 | 52.34004 | 8.38662 | 15606 ft | 302 kts | 28° |
| 2026-04-29 19:19 | 52.36038 | 8.40283 | 15276 ft | 343 kts | 28° |
| 2026-04-29 19:19 | 52.38265 | 8.42075 | 15275 ft | 370 kts | 28° |
| 2026-04-29 19:19 | 52.40653 | 8.44008 | 15275 ft | 394 kts | 28° |
| 2026-04-29 19:20 | 52.43135 | 8.46140 | 15527 ft | 406 kts | 30° |
| 2026-04-29 19:20 | 52.45595 | 8.48417 | 16224 ft | 404 kts | 31° |
| 2026-04-29 19:20 | 52.47973 | 8.50709 | 17528 ft | 390 kts | 32° |
| 2026-04-29 19:20 | 52.50300 | 8.52978 | 18453 ft | 388 kts | 32° |
| 2026-04-29 19:21 | 52.52629 | 8.55250 | 19146 ft | 390 kts | 32° |
| 2026-04-29 19:21 | 52.54980 | 8.57532 | 19767 ft | 393 kts | 32° |
| 2026-04-29 19:21 | 52.57350 | 8.59816 | 20377 ft | 397 kts | 31° |
| 2026-04-29 19:21 | 52.59747 | 8.62110 | 21016 ft | 400 kts | 31° |
| 2026-04-29 19:22 | 52.62164 | 8.64411 | 21600 ft | 403 kts | 31° |
| 2026-04-29 19:22 | 52.64601 | 8.66733 | 22163 ft | 406 kts | 31° |
| 2026-04-29 19:22 | 52.67042 | 8.69069 | 22699 ft | 410 kts | 31° |
| 2026-04-29 19:22 | 52.69516 | 8.71442 | 23238 ft | 413 kts | 31° |
| 2026-04-29 19:23 | 52.71971 | 8.73802 | 23758 ft | 416 kts | 31° |
| 2026-04-29 19:23 | 52.74542 | 8.76019 | 24226 ft | 420 kts | 25° |
| 2026-04-29 19:23 | 52.77307 | 8.77641 | 24649 ft | 424 kts | 17° |
| 2026-04-29 19:23 | 52.80197 | 8.78591 | 25086 ft | 429 kts | 9° |
| 2026-04-29 19:24 | 52.83162 | 8.78838 | 25499 ft | 434 kts | 3° |
| 2026-04-29 19:24 | 52.86194 | 8.78796 | 25902 ft | 436 kts | 3° |
| 2026-04-29 19:24 | 52.89231 | 8.78763 | 26288 ft | 438 kts | 3° |
| 2026-04-29 19:24 | 52.92272 | 8.78740 | 26796 ft | 436 kts | 3° |
| 2026-04-29 19:25 | 52.95297 | 8.78727 | 27352 ft | 434 kts | 4° |
| 2026-04-29 19:25 | 52.98285 | 8.79136 | 27903 ft | 429 kts | 11° |
| 2026-04-29 19:25 | 53.01239 | 8.79817 | 28478 ft | 427 kts | 11° |
| 2026-04-29 19:25 | 53.04166 | 8.80490 | 29079 ft | 424 kts | 11° |
| 2026-04-29 19:26 | 53.07083 | 8.81159 | 29777 ft | 420 kts | 11° |
| 2026-04-29 19:26 | 53.09953 | 8.81812 | 30623 ft | 414 kts | 11° |
| 2026-04-29 19:26 | 53.12790 | 8.82455 | 31190 ft | 412 kts | 11° |
| 2026-04-29 19:26 | 53.15660 | 8.83109 | 31386 ft | 419 kts | 12° |
| 2026-04-29 19:27 | 53.18577 | 8.83776 | 31438 ft | 427 kts | 11° |
| 2026-04-29 19:27 | 53.24562 | 8.85149 | 31439 ft | 440 kts | 11° |
| 2026-04-29 19:28 | 53.30681 | 8.86547 | 31790 ft | 441 kts | 11° |
| 2026-04-29 19:28 | 53.33699 | 8.87232 | 32313 ft | 435 kts | 11° |
| 2026-04-29 19:28 | 53.36678 | 8.87904 | 32888 ft | 427 kts | 11° |
| 2026-04-29 19:28 | 53.39605 | 8.88543 | 33457 ft | 422 kts | 11° |
| 2026-04-29 19:29 | 53.42500 | 8.89172 | 34028 ft | 418 kts | 12° |
| 2026-04-29 19:29 | 53.45317 | 8.89842 | 34359 ft | 409 kts | 12° |
| 2026-04-29 19:29 | 53.48112 | 8.90548 | 34289 ft | 408 kts | 13° |
| 2026-04-29 19:29 | 53.50948 | 8.91293 | 33708 ft | 416 kts | 13° |
| 2026-04-29 19:30 | 53.53865 | 8.92071 | 33221 ft | 420 kts | 13° |
| 2026-04-29 19:30 | 53.56757 | 8.92832 | 32793 ft | 423 kts | 12° |
| 2026-04-29 19:30 | 53.58687 | 8.93332 | 32518 ft | 424 kts | 12° |
| 2026-04-29 19:30 | 53.62596 | 8.94330 | 31975 ft | 426 kts | 12° |
| 2026-04-29 19:31 | 53.64543 | 8.94824 | 31693 ft | 427 kts | 12° |
| 2026-04-29 19:31 | 53.67491 | 8.95567 | 31060 ft | 435 kts | 11° |
| 2026-04-29 19:31 | 53.70536 | 8.96337 | 30770 ft | 447 kts | 11° |
| 2026-04-29 19:31 | 53.73591 | 8.97107 | 31271 ft | 440 kts | 11° |
| 2026-04-29 19:32 | 53.76589 | 8.97859 | 31816 ft | 432 kts | 11° |
| 2026-04-29 19:32 | 53.79525 | 8.98589 | 32321 ft | 417 kts | 12° |
| 2026-04-29 19:32 | 53.82307 | 8.99266 | 32719 ft | 392 kts | 12° |
| 2026-04-29 19:32 | 53.84935 | 8.99889 | 33097 ft | 371 kts | 12° |
| 2026-04-29 19:33 | 53.87437 | 9.00467 | 33457 ft | 354 kts | 12° |
| 2026-04-29 19:33 | 53.89826 | 9.01006 | 33801 ft | 339 kts | 12° |
| 2026-04-29 19:33 | 53.92109 | 9.01508 | 34136 ft | 324 kts | 12° |
| 2026-04-29 19:33 | 53.94306 | 9.01978 | 34446 ft | 311 kts | 12° |
| 2026-04-29 19:34 | 53.96409 | 9.02414 | 34703 ft | 297 kts | 12° |
| 2026-04-29 19:34 | 53.98458 | 9.02839 | 34576 ft | 304 kts | 12° |